sensor_id;sensor_type;location;lat;lon;timestamp;temperature;humidity
48912;DHT22;34722;52.108;5.044;2023-11-19T00:00:26;13.30;99.90
48912;DHT22;34722;52.108;5.044;2023-11-19T00:02:52;13.30;99.90
48912;DHT22;34722;52.108;5.044;2023-11-19T00:05:18;13.40;99.90
48912;DHT22;34722;52.108;5.044;2023-11-19T00:07:44;13.40;99.90
48912;DHT22;34722;52.108;5.044;2023-11-19T00:10:15;13.40;99.90
48912;DHT22;34722;52.108;5.044;2023-11-19T00:12:46;13.30;99.90
48912;DHT22;34722;52.108;5.044;2023-11-19T00:15:12;13.30;99.90
48912;DHT22;34722;52.108;5.044;2023-11-19T00:17:41;13.40;99.90
48912;DHT22;34722;52.108;5.044;2023-11-19T00:20:11;13.30;99.90
48912;DHT22;34722;52.108;5.044;2023-11-19T00:22:37;13.40;99.90
48912;DHT22;34722;52.108;5.044;2023-11-19T00:25:03;13.40;99.90
48912;DHT22;34722;52.108;5.044;2023-11-19T00:27:29;13.40;99.90
48912;DHT22;34722;52.108;5.044;2023-11-19T00:29:54;13.30;99.90
48912;DHT22;34722;52.108;5.044;2023-11-19T00:32:20;13.30;99.90
48912;DHT22;34722;52.108;5.044;2023-11-19T00:34:46;13.30;99.90
48912;DHT22;34722;52.108;5.044;2023-11-19T00:37:14;13.20;99.90
48912;DHT22;34722;52.108;5.044;2023-11-19T00:39:41;13.20;99.90
48912;DHT22;34722;52.108;5.044;2023-11-19T00:42:06;13.30;99.90
48912;DHT22;34722;52.108;5.044;2023-11-19T00:44:32;13.20;99.90
48912;DHT22;34722;52.108;5.044;2023-11-19T00:46:58;13.20;99.90
48912;DHT22;34722;52.108;5.044;2023-11-19T00:49:25;13.20;99.90
48912;DHT22;34722;52.108;5.044;2023-11-19T00:51:50;13.30;99.90
48912;DHT22;34722;52.108;5.044;2023-11-19T00:54:16;13.20;99.90
48912;DHT22;34722;52.108;5.044;2023-11-19T00:56:41;13.10;99.90
48912;DHT22;34722;52.108;5.044;2023-11-19T00:59:07;13.10;99.90
48912;DHT22;34722;52.108;5.044;2023-11-19T01:01:33;13.10;99.90
48912;DHT22;34722;52.108;5.044;2023-11-19T01:03:59;13.00;99.90
48912;DHT22;34722;52.108;5.044;2023-11-19T01:06:31;13.00;99.90
48912;DHT22;34722;52.108;5.044;2023-11-19T01:08:58;13.00;99.90
48912;DHT22;34722;52.108;5.044;2023-11-19T01:11:24;13.10;99.90
48912;DHT22;34722;52.108;5.044;2023-11-19T01:13:50;13.10;99.90
48912;DHT22;34722;52.108;5.044;2023-11-19T01:16:15;13.10;99.90
48912;DHT22;34722;52.108;5.044;2023-11-19T01:18:41;13.00;99.90
48912;DHT22;34722;52.108;5.044;2023-11-19T01:21:07;13.10;99.90
48912;DHT22;34722;52.108;5.044;2023-11-19T01:23:37;13.10;99.90
48912;DHT22;34722;52.108;5.044;2023-11-19T01:26:03;13.10;99.90
48912;DHT22;34722;52.108;5.044;2023-11-19T01:28:31;13.20;99.90
48912;DHT22;34722;52.108;5.044;2023-11-19T01:30:56;13.10;99.90
48912;DHT22;34722;52.108;5.044;2023-11-19T01:33:22;13.00;99.90
48912;DHT22;34722;52.108;5.044;2023-11-19T01:35:48;13.00;99.90
48912;DHT22;34722;52.108;5.044;2023-11-19T01:38:13;13.00;99.90
48912;DHT22;34722;52.108;5.044;2023-11-19T01:40:40;12.90;99.90
48912;DHT22;34722;52.108;5.044;2023-11-19T01:43:05;12.90;99.90
48912;DHT22;34722;52.108;5.044;2023-11-19T01:45:31;12.80;99.90
48912;DHT22;34722;52.108;5.044;2023-11-19T01:47:59;12.80;99.90
48912;DHT22;34722;52.108;5.044;2023-11-19T01:50:26;12.70;99.90
48912;DHT22;34722;52.108;5.044;2023-11-19T01:52:54;12.70;99.90
48912;DHT22;34722;52.108;5.044;2023-11-19T01:55:21;12.70;99.90
48912;DHT22;34722;52.108;5.044;2023-11-19T01:57:48;12.60;99.90
48912;DHT22;34722;52.108;5.044;2023-11-19T02:00:15;12.60;99.90
48912;DHT22;34722;52.108;5.044;2023-11-19T02:02:42;12.50;99.90
48912;DHT22;34722;52.108;5.044;2023-11-19T02:05:09;12.40;99.90
48912;DHT22;34722;52.108;5.044;2023-11-19T02:07:35;12.40;99.90
48912;DHT22;34722;52.108;5.044;2023-11-19T02:10:01;12.40;99.90
48912;DHT22;34722;52.108;5.044;2023-11-19T02:12:27;12.30;99.90
48912;DHT22;34722;52.108;5.044;2023-11-19T02:14:59;12.20;99.90
48912;DHT22;34722;52.108;5.044;2023-11-19T02:17:28;12.30;99.90
48912;DHT22;34722;52.108;5.044;2023-11-19T02:19:56;12.20;99.90
48912;DHT22;34722;52.108;5.044;2023-11-19T02:22:22;12.20;99.90
48912;DHT22;34722;52.108;5.044;2023-11-19T02:24:51;12.20;99.90
48912;DHT22;34722;52.108;5.044;2023-11-19T02:27:58;12.20;99.90
48912;DHT22;34722;52.108;5.044;2023-11-19T02:30:25;12.20;99.90
48912;DHT22;34722;52.108;5.044;2023-11-19T02:32:55;12.20;99.90
48912;DHT22;34722;52.108;5.044;2023-11-19T02:35:23;12.30;99.90
48912;DHT22;34722;52.108;5.044;2023-11-19T02:37:49;12.20;99.90
48912;DHT22;34722;52.108;5.044;2023-11-19T02:40:15;12.10;99.90
48912;DHT22;34722;52.108;5.044;2023-11-19T02:42:41;12.10;99.90
48912;DHT22;34722;52.108;5.044;2023-11-19T02:45:07;12.10;99.90
48912;DHT22;34722;52.108;5.044;2023-11-19T02:47:42;12.20;99.90
48912;DHT22;34722;52.108;5.044;2023-11-19T02:50:09;12.20;99.90
48912;DHT22;34722;52.108;5.044;2023-11-19T02:52:52;12.20;99.90
48912;DHT22;34722;52.108;5.044;2023-11-19T02:55:19;12.20;99.90
48912;DHT22;34722;52.108;5.044;2023-11-19T02:57:45;12.10;99.90
48912;DHT22;34722;52.108;5.044;2023-11-19T03:00:18;12.10;99.90
48912;DHT22;34722;52.108;5.044;2023-11-19T03:02:46;12.10;99.90
48912;DHT22;34722;52.108;5.044;2023-11-19T03:05:14;12.00;99.90
48912;DHT22;34722;52.108;5.044;2023-11-19T03:07:43;11.90;99.90
48912;DHT22;34722;52.108;5.044;2023-11-19T03:10:10;11.90;99.90
48912;DHT22;34722;52.108;5.044;2023-11-19T03:12:39;11.90;99.90
48912;DHT22;34722;52.108;5.044;2023-11-19T03:15:09;11.80;99.90
48912;DHT22;34722;52.108;5.044;2023-11-19T03:17:39;11.80;99.90
48912;DHT22;34722;52.108;5.044;2023-11-19T03:20:07;11.80;99.90
48912;DHT22;34722;52.108;5.044;2023-11-19T03:22:38;11.70;99.90
48912;DHT22;34722;52.108;5.044;2023-11-19T03:25:08;11.70;99.90
48912;DHT22;34722;52.108;5.044;2023-11-19T03:27:43;11.70;99.90
48912;DHT22;34722;52.108;5.044;2023-11-19T03:30:09;11.80;99.90
48912;DHT22;34722;52.108;5.044;2023-11-19T03:32:35;11.70;99.90
48912;DHT22;34722;52.108;5.044;2023-11-19T03:35:05;11.60;99.90
48912;DHT22;34722;52.108;5.044;2023-11-19T03:37:32;11.60;99.90
48912;DHT22;34722;52.108;5.044;2023-11-19T03:39:58;11.50;99.90
48912;DHT22;34722;52.108;5.044;2023-11-19T03:42:31;11.50;99.90
48912;DHT22;34722;52.108;5.044;2023-11-19T03:44:57;11.50;99.90
48912;DHT22;34722;52.108;5.044;2023-11-19T03:47:23;11.50;99.90
48912;DHT22;34722;52.108;5.044;2023-11-19T03:49:49;11.40;99.90
48912;DHT22;34722;52.108;5.044;2023-11-19T03:52:16;11.40;99.90
48912;DHT22;34722;52.108;5.044;2023-11-19T03:54:41;11.40;99.90
48912;DHT22;34722;52.108;5.044;2023-11-19T03:57:10;11.30;99.90
48912;DHT22;34722;52.108;5.044;2023-11-19T03:59:39;11.30;99.90
48912;DHT22;34722;52.108;5.044;2023-11-19T04:02:05;11.40;99.90
48912;DHT22;34722;52.108;5.044;2023-11-19T04:04:30;11.40;99.90
48912;DHT22;34722;52.108;5.044;2023-11-19T04:06:56;11.40;99.90
48912;DHT22;34722;52.108;5.044;2023-11-19T04:09:23;11.50;99.90
48912;DHT22;34722;52.108;5.044;2023-11-19T04:11:49;11.50;99.90
48912;DHT22;34722;52.108;5.044;2023-11-19T04:14:15;11.40;99.90
48912;DHT22;34722;52.108;5.044;2023-11-19T04:16:44;11.30;99.90
48912;DHT22;34722;52.108;5.044;2023-11-19T04:19:10;11.40;99.90
48912;DHT22;34722;52.108;5.044;2023-11-19T04:21:36;11.40;99.90
48912;DHT22;34722;52.108;5.044;2023-11-19T04:24:02;11.40;99.90
48912;DHT22;34722;52.108;5.044;2023-11-19T04:26:28;11.40;99.90
48912;DHT22;34722;52.108;5.044;2023-11-19T04:28:54;11.30;99.90
48912;DHT22;34722;52.108;5.044;2023-11-19T04:31:20;11.30;99.90
48912;DHT22;34722;52.108;5.044;2023-11-19T04:33:58;11.30;99.90
48912;DHT22;34722;52.108;5.044;2023-11-19T04:36:27;11.30;99.90
48912;DHT22;34722;52.108;5.044;2023-11-19T04:38:57;11.30;99.90
48912;DHT22;34722;52.108;5.044;2023-11-19T04:41:30;11.20;99.90
48912;DHT22;34722;52.108;5.044;2023-11-19T04:44:00;11.30;99.90
48912;DHT22;34722;52.108;5.044;2023-11-19T04:46:28;11.30;99.90
48912;DHT22;34722;52.108;5.044;2023-11-19T04:48:57;11.40;99.90
48912;DHT22;34722;52.108;5.044;2023-11-19T04:51:26;11.30;99.90
48912;DHT22;34722;52.108;5.044;2023-11-19T04:53:52;11.30;99.90
48912;DHT22;34722;52.108;5.044;2023-11-19T04:56:18;11.30;99.90
48912;DHT22;34722;52.108;5.044;2023-11-19T04:58:45;11.20;99.90
48912;DHT22;34722;52.108;5.044;2023-11-19T05:01:14;11.20;99.90
48912;DHT22;34722;52.108;5.044;2023-11-19T05:03:52;11.30;99.90
48912;DHT22;34722;52.108;5.044;2023-11-19T05:06:18;11.30;99.90
48912;DHT22;34722;52.108;5.044;2023-11-19T05:08:44;11.30;99.90
48912;DHT22;34722;52.108;5.044;2023-11-19T05:11:10;11.30;99.90
48912;DHT22;34722;52.108;5.044;2023-11-19T05:13:38;11.20;99.90
48912;DHT22;34722;52.108;5.044;2023-11-19T05:16:04;11.30;99.90
48912;DHT22;34722;52.108;5.044;2023-11-19T05:18:30;11.20;99.90
48912;DHT22;34722;52.108;5.044;2023-11-19T05:20:55;11.20;99.90
48912;DHT22;34722;52.108;5.044;2023-11-19T05:23:21;11.20;99.90
48912;DHT22;34722;52.108;5.044;2023-11-19T05:25:47;11.20;99.90
48912;DHT22;34722;52.108;5.044;2023-11-19T05:28:13;11.10;99.90
48912;DHT22;34722;52.108;5.044;2023-11-19T05:30:39;11.20;99.90
48912;DHT22;34722;52.108;5.044;2023-11-19T05:33:06;11.20;99.90
48912;DHT22;34722;52.108;5.044;2023-11-19T05:35:34;11.20;99.90
48912;DHT22;34722;52.108;5.044;2023-11-19T05:38:00;11.20;99.90
48912;DHT22;34722;52.108;5.044;2023-11-19T05:40:26;11.10;99.90
48912;DHT22;34722;52.108;5.044;2023-11-19T05:42:51;11.20;99.90
48912;DHT22;34722;52.108;5.044;2023-11-19T05:45:17;11.10;99.90
48912;DHT22;34722;52.108;5.044;2023-11-19T05:47:43;11.00;99.90
48912;DHT22;34722;52.108;5.044;2023-11-19T05:50:09;11.00;99.90
48912;DHT22;34722;52.108;5.044;2023-11-19T05:52:35;11.10;99.90
48912;DHT22;34722;52.108;5.044;2023-11-19T05:55:01;11.10;99.90
48912;DHT22;34722;52.108;5.044;2023-11-19T05:57:35;11.00;99.90
48912;DHT22;34722;52.108;5.044;2023-11-19T06:00:01;11.00;99.90
48912;DHT22;34722;52.108;5.044;2023-11-19T06:02:28;11.20;99.90
48912;DHT22;34722;52.108;5.044;2023-11-19T06:04:54;11.30;99.90
48912;DHT22;34722;52.108;5.044;2023-11-19T06:07:20;11.30;99.90
48912;DHT22;34722;52.108;5.044;2023-11-19T06:09:45;11.20;99.90
48912;DHT22;34722;52.108;5.044;2023-11-19T06:12:11;11.20;99.90
48912;DHT22;34722;52.108;5.044;2023-11-19T06:14:40;11.20;99.90
48912;DHT22;34722;52.108;5.044;2023-11-19T06:17:06;11.30;99.90
48912;DHT22;34722;52.108;5.044;2023-11-19T06:19:33;11.10;99.90
48912;DHT22;34722;52.108;5.044;2023-11-19T06:21:59;11.10;99.90
48912;DHT22;34722;52.108;5.044;2023-11-19T06:24:27;11.00;99.90
48912;DHT22;34722;52.108;5.044;2023-11-19T06:26:53;11.10;99.90
48912;DHT22;34722;52.108;5.044;2023-11-19T06:29:19;10.90;99.90
48912;DHT22;34722;52.108;5.044;2023-11-19T06:31:45;11.00;99.90
48912;DHT22;34722;52.108;5.044;2023-11-19T06:34:14;10.90;99.90
48912;DHT22;34722;52.108;5.044;2023-11-19T06:36:40;10.90;99.90
48912;DHT22;34722;52.108;5.044;2023-11-19T06:39:06;10.90;99.90
48912;DHT22;34722;52.108;5.044;2023-11-19T06:41:31;11.00;99.90
48912;DHT22;34722;52.108;5.044;2023-11-19T06:43:57;11.00;99.90
48912;DHT22;34722;52.108;5.044;2023-11-19T06:46:23;11.10;99.90
48912;DHT22;34722;52.108;5.044;2023-11-19T06:48:49;11.00;99.90
48912;DHT22;34722;52.108;5.044;2023-11-19T06:51:15;11.00;99.90
48912;DHT22;34722;52.108;5.044;2023-11-19T06:53:42;11.00;99.90
48912;DHT22;34722;52.108;5.044;2023-11-19T06:56:23;11.00;99.90
48912;DHT22;34722;52.108;5.044;2023-11-19T06:58:52;11.00;99.90
48912;DHT22;34722;52.108;5.044;2023-11-19T07:01:19;11.00;99.90
48912;DHT22;34722;52.108;5.044;2023-11-19T07:03:47;11.00;99.90
48912;DHT22;34722;52.108;5.044;2023-11-19T07:06:13;11.10;99.90
48912;DHT22;34722;52.108;5.044;2023-11-19T07:08:42;11.20;99.90
48912;DHT22;34722;52.108;5.044;2023-11-19T07:11:12;11.10;99.90
48912;DHT22;34722;52.108;5.044;2023-11-19T07:13:40;11.20;99.90
48912;DHT22;34722;52.108;5.044;2023-11-19T07:16:07;11.10;99.90
48912;DHT22;34722;52.108;5.044;2023-11-19T07:18:35;11.10;99.90
48912;DHT22;34722;52.108;5.044;2023-11-19T07:21:01;11.10;99.90
48912;DHT22;34722;52.108;5.044;2023-11-19T07:23:28;11.10;99.90
48912;DHT22;34722;52.108;5.044;2023-11-19T07:25:54;11.30;99.90
48912;DHT22;34722;52.108;5.044;2023-11-19T07:28:19;11.30;99.90
48912;DHT22;34722;52.108;5.044;2023-11-19T07:30:45;11.40;99.90
48912;DHT22;34722;52.108;5.044;2023-11-19T07:33:10;11.40;99.90
48912;DHT22;34722;52.108;5.044;2023-11-19T07:35:37;11.30;99.90
48912;DHT22;34722;52.108;5.044;2023-11-19T07:38:03;11.40;99.90
48912;DHT22;34722;52.108;5.044;2023-11-19T07:40:28;11.50;99.90
48912;DHT22;34722;52.108;5.044;2023-11-19T07:42:54;11.60;99.90
48912;DHT22;34722;52.108;5.044;2023-11-19T07:45:20;11.50;99.90
48912;DHT22;34722;52.108;5.044;2023-11-19T07:47:45;11.50;99.90
48912;DHT22;34722;52.108;5.044;2023-11-19T07:50:11;11.50;99.90
48912;DHT22;34722;52.108;5.044;2023-11-19T07:52:39;11.50;99.90
48912;DHT22;34722;52.108;5.044;2023-11-19T07:55:05;11.50;99.90
48912;DHT22;34722;52.108;5.044;2023-11-19T07:57:31;11.60;99.90
48912;DHT22;34722;52.108;5.044;2023-11-19T07:59:57;11.60;99.90
48912;DHT22;34722;52.108;5.044;2023-11-19T08:02:23;11.70;99.90
48912;DHT22;34722;52.108;5.044;2023-11-19T08:04:49;11.60;99.90
48912;DHT22;34722;52.108;5.044;2023-11-19T08:07:18;11.70;99.90
48912;DHT22;34722;52.108;5.044;2023-11-19T08:09:44;11.70;99.90
48912;DHT22;34722;52.108;5.044;2023-11-19T08:12:10;11.60;99.90
48912;DHT22;34722;52.108;5.044;2023-11-19T08:14:36;11.50;99.90
48912;DHT22;34722;52.108;5.044;2023-11-19T08:17:02;11.50;99.90
48912;DHT22;34722;52.108;5.044;2023-11-19T08:19:28;11.40;99.90
48912;DHT22;34722;52.108;5.044;2023-11-19T08:21:54;11.50;99.90
48912;DHT22;34722;52.108;5.044;2023-11-19T08:24:19;11.40;99.90
48912;DHT22;34722;52.108;5.044;2023-11-19T08:26:45;11.50;99.90
48912;DHT22;34722;52.108;5.044;2023-11-19T08:29:11;11.50;99.90
48912;DHT22;34722;52.108;5.044;2023-11-19T08:31:36;11.50;99.90
48912;DHT22;34722;52.108;5.044;2023-11-19T08:34:02;11.60;99.90
48912;DHT22;34722;52.108;5.044;2023-11-19T08:36:28;11.60;99.90
48912;DHT22;34722;52.108;5.044;2023-11-19T08:38:53;11.60;99.90
48912;DHT22;34722;52.108;5.044;2023-11-19T08:41:20;11.60;99.90
48912;DHT22;34722;52.108;5.044;2023-11-19T08:43:47;11.70;99.90
48912;DHT22;34722;52.108;5.044;2023-11-19T08:46:12;11.70;99.90
48912;DHT22;34722;52.108;5.044;2023-11-19T08:48:39;11.70;99.90
48912;DHT22;34722;52.108;5.044;2023-11-19T08:51:05;11.70;99.90
48912;DHT22;34722;52.108;5.044;2023-11-19T08:53:30;11.70;99.90
48912;DHT22;34722;52.108;5.044;2023-11-19T08:55:56;11.80;99.90
48912;DHT22;34722;52.108;5.044;2023-11-19T08:58:21;11.80;99.90
48912;DHT22;34722;52.108;5.044;2023-11-19T09:00:47;11.80;99.90
48912;DHT22;34722;52.108;5.044;2023-11-19T09:03:13;11.90;99.90
48912;DHT22;34722;52.108;5.044;2023-11-19T09:05:42;11.90;99.90
48912;DHT22;34722;52.108;5.044;2023-11-19T09:08:08;11.90;99.90
48912;DHT22;34722;52.108;5.044;2023-11-19T09:10:34;12.00;99.90
48912;DHT22;34722;52.108;5.044;2023-11-19T09:13:09;12.00;99.90
48912;DHT22;34722;52.108;5.044;2023-11-19T09:15:34;12.00;99.90
48912;DHT22;34722;52.108;5.044;2023-11-19T09:18:00;12.00;99.90
48912;DHT22;34722;52.108;5.044;2023-11-19T09:20:29;12.10;99.90
48912;DHT22;34722;52.108;5.044;2023-11-19T09:23:00;12.10;99.90
48912;DHT22;34722;52.108;5.044;2023-11-19T09:25:26;12.20;99.90
48912;DHT22;34722;52.108;5.044;2023-11-19T09:27:52;12.30;99.90
48912;DHT22;34722;52.108;5.044;2023-11-19T09:30:17;12.30;99.90
48912;DHT22;34722;52.108;5.044;2023-11-19T09:32:43;12.40;99.90
48912;DHT22;34722;52.108;5.044;2023-11-19T09:35:08;12.40;99.90
48912;DHT22;34722;52.108;5.044;2023-11-19T09:37:36;12.40;99.90
48912;DHT22;34722;52.108;5.044;2023-11-19T09:40:01;12.40;99.90
48912;DHT22;34722;52.108;5.044;2023-11-19T09:42:27;12.50;99.90
48912;DHT22;34722;52.108;5.044;2023-11-19T09:44:53;12.50;99.90
48912;DHT22;34722;52.108;5.044;2023-11-19T09:47:21;12.70;99.90
48912;DHT22;34722;52.108;5.044;2023-11-19T09:49:48;12.70;99.90
48912;DHT22;34722;52.108;5.044;2023-11-19T09:52:14;12.80;99.90
48912;DHT22;34722;52.108;5.044;2023-11-19T09:54:40;12.70;99.90
48912;DHT22;34722;52.108;5.044;2023-11-19T09:57:07;12.80;99.90
48912;DHT22;34722;52.108;5.044;2023-11-19T09:59:33;12.80;99.90
48912;DHT22;34722;52.108;5.044;2023-11-19T10:01:59;12.80;99.90
48912;DHT22;34722;52.108;5.044;2023-11-19T10:04:25;12.90;99.90
48912;DHT22;34722;52.108;5.044;2023-11-19T10:06:54;13.20;99.90
48912;DHT22;34722;52.108;5.044;2023-11-19T10:09:21;13.40;99.90
48912;DHT22;34722;52.108;5.044;2023-11-19T10:11:46;13.70;99.90
48912;DHT22;34722;52.108;5.044;2023-11-19T10:14:13;13.80;99.90
48912;DHT22;34722;52.108;5.044;2023-11-19T10:16:40;13.90;99.90
48912;DHT22;34722;52.108;5.044;2023-11-19T10:19:06;14.00;99.90
48912;DHT22;34722;52.108;5.044;2023-11-19T10:21:35;14.10;99.90
48912;DHT22;34722;52.108;5.044;2023-11-19T10:24:01;14.20;99.90
48912;DHT22;34722;52.108;5.044;2023-11-19T10:26:27;14.30;99.90
48912;DHT22;34722;52.108;5.044;2023-11-19T10:28:53;14.30;99.90
48912;DHT22;34722;52.108;5.044;2023-11-19T10:31:20;14.20;99.90
48912;DHT22;34722;52.108;5.044;2023-11-19T10:33:50;14.00;99.90
48912;DHT22;34722;52.108;5.044;2023-11-19T10:36:17;14.00;99.90
48912;DHT22;34722;52.108;5.044;2023-11-19T10:39:03;14.00;99.90
48912;DHT22;34722;52.108;5.044;2023-11-19T10:41:29;14.20;99.90
48912;DHT22;34722;52.108;5.044;2023-11-19T10:43:56;14.40;99.90
48912;DHT22;34722;52.108;5.044;2023-11-19T10:46:21;14.60;99.90
48912;DHT22;34722;52.108;5.044;2023-11-19T10:48:49;14.60;99.90
48912;DHT22;34722;52.108;5.044;2023-11-19T10:51:19;14.70;99.90
48912;DHT22;34722;52.108;5.044;2023-11-19T10:53:49;14.70;91.00
48912;DHT22;34722;52.108;5.044;2023-11-19T10:56:16;14.80;98.50
48912;DHT22;34722;52.108;5.044;2023-11-19T10:58:45;14.60;68.20
48912;DHT22;34722;52.108;5.044;2023-11-19T11:01:19;14.40;81.90
48912;DHT22;34722;52.108;5.044;2023-11-19T11:03:51;14.30;77.50
48912;DHT22;34722;52.108;5.044;2023-11-19T11:06:19;14.30;49.60
48912;DHT22;34722;52.108;5.044;2023-11-19T11:08:48;14.10;91.10
48912;DHT22;34722;52.108;5.044;2023-11-19T11:11:16;14.10;76.90
48912;DHT22;34722;52.108;5.044;2023-11-19T11:13:47;14.10;94.50
48912;DHT22;34722;52.108;5.044;2023-11-19T11:16:15;14.00;99.90
48912;DHT22;34722;52.108;5.044;2023-11-19T11:18:45;14.00;70.70
48912;DHT22;34722;52.108;5.044;2023-11-19T11:21:16;14.10;93.30
48912;DHT22;34722;52.108;5.044;2023-11-19T11:24:19;14.10;54.60
48912;DHT22;34722;52.108;5.044;2023-11-19T11:32:33;14.00;69.50
48912;DHT22;34722;52.108;5.044;2023-11-19T11:37:49;14.00;99.90
48912;DHT22;34722;52.108;5.044;2023-11-19T11:40:18;13.90;99.90
48912;DHT22;34722;52.108;5.044;2023-11-19T11:42:47;13.80;99.90
48912;DHT22;34722;52.108;5.044;2023-11-19T11:45:14;13.80;99.90
48912;DHT22;34722;52.108;5.044;2023-11-19T11:50:15;13.70;99.90
48912;DHT22;34722;52.108;5.044;2023-11-19T11:55:35;13.60;99.90
48912;DHT22;34722;52.108;5.044;2023-11-19T11:58:07;13.50;99.90
48912;DHT22;34722;52.108;5.044;2023-11-19T12:00:36;13.50;99.90
48912;DHT22;34722;52.108;5.044;2023-11-19T12:03:07;13.50;99.90
48912;DHT22;34722;52.108;5.044;2023-11-19T12:05:35;13.70;99.90
48912;DHT22;34722;52.108;5.044;2023-11-19T12:08:05;13.90;99.90
48912;DHT22;34722;52.108;5.044;2023-11-19T12:10:44;13.90;99.90
48912;DHT22;34722;52.108;5.044;2023-11-19T12:13:10;14.10;99.90
48912;DHT22;34722;52.108;5.044;2023-11-19T12:18:29;14.10;99.90
48912;DHT22;34722;52.108;5.044;2023-11-19T12:20:55;13.90;99.90
48912;DHT22;34722;52.108;5.044;2023-11-19T12:23:22;14.00;99.90
48912;DHT22;34722;52.108;5.044;2023-11-19T12:25:48;14.00;99.90
48912;DHT22;34722;52.108;5.044;2023-11-19T12:28:15;14.10;99.90
48912;DHT22;34722;52.108;5.044;2023-11-19T12:30:45;14.20;85.30
48912;DHT22;34722;52.108;5.044;2023-11-19T12:33:12;14.10;86.30
48912;DHT22;34722;52.108;5.044;2023-11-19T12:35:42;14.10;71.40
48912;DHT22;34722;52.108;5.044;2023-11-19T12:38:18;14.10;69.50
48912;DHT22;34722;52.108;5.044;2023-11-19T12:40:44;14.10;74.50
48912;DHT22;34722;52.108;5.044;2023-11-19T12:43:10;14.10;49.10
48912;DHT22;34722;52.108;5.044;2023-11-19T12:45:36;14.00;65.90
48912;DHT22;34722;52.108;5.044;2023-11-19T12:48:09;14.00;46.80
48912;DHT22;34722;52.108;5.044;2023-11-19T12:50:56;13.90;47.90
48912;DHT22;34722;52.108;5.044;2023-11-19T12:53:27;13.80;55.90
48912;DHT22;34722;52.108;5.044;2023-11-19T12:55:54;13.70;84.70
48912;DHT22;34722;52.108;5.044;2023-11-19T12:58:31;13.60;99.90
48912;DHT22;34722;52.108;5.044;2023-11-19T13:01:00;13.60;98.50
48912;DHT22;34722;52.108;5.044;2023-11-19T13:03:33;13.60;99.90
48912;DHT22;34722;52.108;5.044;2023-11-19T13:06:06;13.60;99.90
48912;DHT22;34722;52.108;5.044;2023-11-19T13:08:42;13.60;99.90
48912;DHT22;34722;52.108;5.044;2023-11-19T13:11:10;13.60;99.90
48912;DHT22;34722;52.108;5.044;2023-11-19T13:14:02;13.60;99.90
48912;DHT22;34722;52.108;5.044;2023-11-19T13:16:29;13.70;99.90
48912;DHT22;34722;52.108;5.044;2023-11-19T13:18:56;13.80;95.10
48912;DHT22;34722;52.108;5.044;2023-11-19T13:21:22;13.90;89.20
48912;DHT22;34722;52.108;5.044;2023-11-19T13:23:48;13.90;96.80
48912;DHT22;34722;52.108;5.044;2023-11-19T13:26:14;14.00;80.70
48912;DHT22;34722;52.108;5.044;2023-11-19T13:28:39;14.10;73.10
48912;DHT22;34722;52.108;5.044;2023-11-19T13:31:05;14.10;88.70
48912;DHT22;34722;52.108;5.044;2023-11-19T13:33:31;14.20;64.80
48912;DHT22;34722;52.108;5.044;2023-11-19T13:35:57;14.10;85.20
48912;DHT22;34722;52.108;5.044;2023-11-19T13:38:23;14.10;79.80
48912;DHT22;34722;52.108;5.044;2023-11-19T13:40:52;14.00;63.50
48912;DHT22;34722;52.108;5.044;2023-11-19T13:43:19;13.90;90.40
48912;DHT22;34722;52.108;5.044;2023-11-19T13:45:45;14.00;89.80
48912;DHT22;34722;52.108;5.044;2023-11-19T13:48:10;13.90;99.00
48912;DHT22;34722;52.108;5.044;2023-11-19T13:50:36;13.90;99.90
48912;DHT22;34722;52.108;5.044;2023-11-19T13:53:02;13.80;99.90
48912;DHT22;34722;52.108;5.044;2023-11-19T13:55:27;13.70;99.90
48912;DHT22;34722;52.108;5.044;2023-11-19T13:57:53;13.60;99.90
48912;DHT22;34722;52.108;5.044;2023-11-19T14:00:19;13.60;99.90
48912;DHT22;34722;52.108;5.044;2023-11-19T14:02:46;13.50;99.90
48912;DHT22;34722;52.108;5.044;2023-11-19T14:05:15;13.50;99.90
48912;DHT22;34722;52.108;5.044;2023-11-19T14:07:44;13.40;99.90
48912;DHT22;34722;52.108;5.044;2023-11-19T14:10:13;13.40;99.90
48912;DHT22;34722;52.108;5.044;2023-11-19T14:12:40;13.30;99.90
48912;DHT22;34722;52.108;5.044;2023-11-19T14:15:08;13.30;99.90
48912;DHT22;34722;52.108;5.044;2023-11-19T14:17:38;13.30;99.90
48912;DHT22;34722;52.108;5.044;2023-11-19T14:20:06;13.30;99.90
48912;DHT22;34722;52.108;5.044;2023-11-19T14:22:47;13.30;99.90
48912;DHT22;34722;52.108;5.044;2023-11-19T14:25:14;13.30;99.90
48912;DHT22;34722;52.108;5.044;2023-11-19T14:27:43;13.20;99.90
48912;DHT22;34722;52.108;5.044;2023-11-19T14:30:11;13.20;99.90
48912;DHT22;34722;52.108;5.044;2023-11-19T14:32:38;13.20;99.90
48912;DHT22;34722;52.108;5.044;2023-11-19T14:35:07;13.20;99.90
48912;DHT22;34722;52.108;5.044;2023-11-19T14:37:33;13.20;99.90
48912;DHT22;34722;52.108;5.044;2023-11-19T14:40:00;13.10;99.90
48912;DHT22;34722;52.108;5.044;2023-11-19T14:42:26;13.10;99.90
48912;DHT22;34722;52.108;5.044;2023-11-19T14:44:52;13.00;99.90
48912;DHT22;34722;52.108;5.044;2023-11-19T14:47:21;13.00;99.90
48912;DHT22;34722;52.108;5.044;2023-11-19T14:49:47;13.00;99.90
48912;DHT22;34722;52.108;5.044;2023-11-19T14:52:13;12.90;99.90
48912;DHT22;34722;52.108;5.044;2023-11-19T14:54:39;13.00;99.90
48912;DHT22;34722;52.108;5.044;2023-11-19T14:57:05;12.90;99.90
48912;DHT22;34722;52.108;5.044;2023-11-19T14:59:33;12.90;99.90
48912;DHT22;34722;52.108;5.044;2023-11-19T15:01:59;12.90;99.90
48912;DHT22;34722;52.108;5.044;2023-11-19T15:04:26;12.80;99.90
48912;DHT22;34722;52.108;5.044;2023-11-19T15:06:52;12.80;99.90
48912;DHT22;34722;52.108;5.044;2023-11-19T15:09:18;12.90;99.90
48912;DHT22;34722;52.108;5.044;2023-11-19T15:11:46;12.90;99.90
48912;DHT22;34722;52.108;5.044;2023-11-19T15:14:16;12.80;99.90
48912;DHT22;34722;52.108;5.044;2023-11-19T15:16:44;12.80;99.90
48912;DHT22;34722;52.108;5.044;2023-11-19T15:19:10;12.80;99.90
48912;DHT22;34722;52.108;5.044;2023-11-19T15:21:38;12.80;99.90
48912;DHT22;34722;52.108;5.044;2023-11-19T15:24:04;12.80;99.90
48912;DHT22;34722;52.108;5.044;2023-11-19T15:26:35;12.80;99.90
48912;DHT22;34722;52.108;5.044;2023-11-19T15:29:02;12.80;99.90
48912;DHT22;34722;52.108;5.044;2023-11-19T15:31:28;12.90;99.90
48912;DHT22;34722;52.108;5.044;2023-11-19T15:33:54;12.80;99.90
48912;DHT22;34722;52.108;5.044;2023-11-19T15:36:19;12.80;99.90
48912;DHT22;34722;52.108;5.044;2023-11-19T15:38:45;12.80;99.90
48912;DHT22;34722;52.108;5.044;2023-11-19T15:41:11;12.80;99.90
48912;DHT22;34722;52.108;5.044;2023-11-19T15:43:37;12.80;99.90
48912;DHT22;34722;52.108;5.044;2023-11-19T15:46:07;12.80;99.90
48912;DHT22;34722;52.108;5.044;2023-11-19T15:48:33;12.80;99.90